Terminal Aerodrome Forecast
Issued by NWS

Home | Current Version | Previous Version | Text Only | Print | Product List | Glossary On
Versions: 1 2 3 4 5 6 7 8 9 10 11 12 13 14 15 16 17 18 19 20 21 22 23 24 25 26 27 28 29 30 31 32 33 34
000
FTUS43 KPAH 111140
TAFOWB
TAF
KOWB 111140Z 1112/1212 16007KT P6SM OVC060
     FM111400 19012G19KT P6SM OVC050
     FM120100 20009KT P6SM -SHRA OVC025
     FM120300 21008KT 3SM SHRA BR OVC009 WS020/22040KT
     FM120700 25007KT 5SM -RA BR OVC006
     FM121100 30009KT P6SM OVC010=

USA.gov is the U.S. government's official web portal to all federal, state and local government web resources and services.